Time;durP1;ratioP1;P1;durP2;ratioP2;P2;SDS_P1;SDS_P2;PMS_P1;PMS_P2;Temp;Humidity;BMP_temperature;BMP_pressure;BME280_temperature;BME280_humidity;BME280_pressure;Samples;Min_cycle;Max_cycle;Signal;HPM_P1;HPM_P2
2020/12/10 00:02:34;;;;;;;58.70;39.40;;;;;;;;;;4997981;28;20198;-88
2020/12/10 00:05:10;;;;;;;62.60;39.07;;;;;;;;;;4997869;28;20173;-88
2020/12/10 00:07:39;;;;;;;49.67;36.13;;;;;;;;;;4996654;28;20264;-87
2020/12/10 00:10:18;;;;;;;52.57;38.40;;;;;;;;;;4996230;28;20281;-88
2020/12/10 00:12:51;;;;;;;56.30;37.10;;;;;;;;;;4996139;28;20745;-88
2020/12/10 00:15:24;;;;;;;56.23;36.83;;;;;;;;;;4996219;28;20262;-88
2020/12/10 00:17:56;;;;;;;52.77;34.97;;;;;;;;;;4997706;28;20167;-89
2020/12/10 00:20:28;;;;;;;53.70;38.10;;;;;;;;;;4997057;28;20194;-88
2020/12/10 00:22:54;;;;;;;60.30;38.60;;;;;;;;;;4997364;28;20189;-88
2020/12/10 00:25:22;;;;;;;51.03;35.60;;;;;;;;;;4995971;28;20179;-88
2020/12/10 00:27:53;;;;;;;52.53;36.33;;;;;;;;;;4996073;28;20240;-88
2020/12/10 00:30:21;;;;;;;51.80;36.60;;;;;;;;;;4997001;28;20713;-87
2020/12/10 00:32:52;;;;;;;57.07;38.60;;;;;;;;;;4995694;28;20202;-88
2020/12/10 00:35:23;;;;;;;51.57;36.30;;;;;;;;;;4995900;28;20524;-88
2020/12/10 00:37:52;;;;;;;53.50;38.40;;;;;;;;;;4995893;28;20173;-87
2020/12/10 00:40:20;;;;;;;52.83;39.07;;;;;;;;;;4995504;28;20202;-88
2020/12/10 00:42:51;;;;;;;53.87;38.20;;;;;;;;;;4995546;28;20228;-88
2020/12/10 00:45:18;;;;;;;56.60;37.23;;;;;;;;;;4996807;28;20653;-88
2020/12/10 00:47:48;;;;;;;51.70;38.73;;;;;;;;;;4996757;28;20188;-88
2020/12/10 00:50:20;;;;;;;55.43;40.17;;;;;;;;;;4996609;28;20205;-88
2020/12/10 00:52:55;;;;;;;53.87;37.93;;;;;;;;;;4995336;28;20219;-87
2020/12/10 00:55:25;;;;;;;52.47;37.43;;;;;;;;;;4996658;28;20170;-88
2020/12/10 00:57:52;;;;;;;49.27;37.53;;;;;;;;;;4996577;28;20553;-87
2020/12/10 01:00:20;;;;;;;48.63;36.77;;;;;;;;;;4995385;28;20191;-88
2020/12/10 01:02:51;;;;;;;56.27;39.17;;;;;;;;;;4995354;28;20681;-88
2020/12/10 01:05:19;;;;;;;57.47;36.67;;;;;;;;;;4995993;28;20261;-88
2020/12/10 01:07:50;;;;;;;53.93;38.63;;;;;;;;;;4995201;28;20244;-88
2020/12/10 01:10:17;;;;;;;53.83;38.40;;;;;;;;;;4995128;28;20761;-88
2020/12/10 01:12:50;;;;;;;54.53;39.30;;;;;;;;;;4995010;28;20209;-90
2020/12/10 01:15:25;;;;;;;53.67;38.37;;;;;;;;;;4996663;28;20166;-89
2020/12/10 01:17:51;;;;;;;53.77;38.70;;;;;;;;;;4995162;28;20638;-86
2020/12/10 01:20:18;;;;;;;55.60;37.73;;;;;;;;;;4994881;28;20203;-86
2020/12/10 01:22:45;;;;;;;55.00;38.87;;;;;;;;;;4994928;28;20245;-86
2020/12/10 01:25:11;;;;;;;56.07;39.97;;;;;;;;;;4996078;28;20174;-87
2020/12/10 01:27:38;;;;;;;56.37;39.40;;;;;;;;;;4994787;28;20240;-87
2020/12/10 01:30:07;;;;;;;58.10;39.80;;;;;;;;;;4995807;28;20710;-88
2020/12/10 01:32:35;;;;;;;56.40;39.77;;;;;;;;;;4994716;28;20701;-88
2020/12/10 01:35:03;;;;;;;56.10;38.00;;;;;;;;;;4995937;28;20177;-88
2020/12/10 01:37:34;;;;;;;57.03;39.53;;;;;;;;;;4994642;28;20210;-88
2020/12/10 01:40:03;;;;;;;58.27;39.47;;;;;;;;;;4994582;28;20570;-88
2020/12/10 01:42:33;;;;;;;56.73;39.03;;;;;;;;;;4994612;28;20173;-88
2020/12/10 01:45:08;;;;;;;58.63;38.27;;;;;;;;;;4994869;28;20261;-89
2020/12/10 01:47:41;;;;;;;53.50;38.70;;;;;;;;;;4994644;28;20220;-88
2020/12/10 01:50:12;;;;;;;50.47;38.03;;;;;;;;;;4996172;28;20191;-88
2020/12/10 01:52:45;;;;;;;61.60;39.83;;;;;;;;;;4995601;28;20198;-88
2020/12/10 01:55:16;;;;;;;56.93;39.70;;;;;;;;;;4995819;28;20631;-88
2020/12/10 01:57:45;;;;;;;55.63;40.13;;;;;;;;;;4994232;28;20179;-88
2020/12/10 02:00:15;;;;;;;50.93;38.70;;;;;;;;;;4994497;28;20194;-88
2020/12/10 02:02:45;;;;;;;59.67;40.17;;;;;;;;;;4995445;28;20178;-88
2020/12/10 02:05:14;;;;;;;59.97;40.87;;;;;;;;;;4994113;28;20182;-88
2020/12/10 02:07:45;;;;;;;62.63;41.43;;;;;;;;;;4994128;28;20205;-88
2020/12/10 02:10:15;;;;;;;63.17;41.77;;;;;;;;;;4995523;28;20202;-88
2020/12/10 02:12:45;;;;;;;55.60;39.53;;;;;;;;;;4995097;28;20206;-88
2020/12/10 02:15:15;;;;;;;53.07;39.43;;;;;;;;;;4993733;28;20259;-88
2020/12/10 02:17:45;;;;;;;60.90;41.23;;;;;;;;;;4994700;28;20171;-88
2020/12/10 02:20:16;;;;;;;55.07;39.27;;;;;;;;;;4994030;28;20190;-88
2020/12/10 02:22:45;;;;;;;63.37;42.03;;;;;;;;;;4993891;28;20174;-88
2020/12/10 02:25:15;;;;;;;58.40;40.43;;;;;;;;;;4993776;28;20638;-88
2020/12/10 02:27:51;;;;;;;59.53;39.93;;;;;;;;;;4995157;28;20210;-88
2020/12/10 02:30:24;;;;;;;59.07;41.00;;;;;;;;;;4993978;28;20693;-88
2020/12/10 02:33:04;;;;;;;55.73;40.33;;;;;;;;;;4994329;28;20619;-88
2020/12/10 02:35:36;;;;;;;60.40;40.77;;;;;;;;;;4995120;28;20166;-88
2020/12/10 02:38:10;;;;;;;55.57;40.70;;;;;;;;;;4993546;28;20170;-88
2020/12/10 02:40:42;;;;;;;64.00;42.33;;;;;;;;;;4993619;28;20284;-88
2020/12/10 02:43:12;;;;;;;62.30;43.27;;;;;;;;;;4993639;28;20178;-88
2020/12/10 02:45:42;;;;;;;64.30;42.10;;;;;;;;;;4993393;28;20178;-88
2020/12/10 02:48:11;;;;;;;59.37;41.47;;;;;;;;;;4993376;28;20179;-88
2020/12/10 02:50:41;;;;;;;65.83;41.93;;;;;;;;;;4993760;28;20696;-88
2020/12/10 02:53:12;;;;;;;63.87;43.57;;;;;;;;;;4994366;28;20198;-88
2020/12/10 02:55:40;;;;;;;59.47;42.13;;;;;;;;;;4994676;28;20177;-88
2020/12/10 02:58:11;;;;;;;66.27;41.27;;;;;;;;;;4994374;28;20181;-88
2020/12/10 03:00:41;;;;;;;54.93;40.37;;;;;;;;;;4993278;28;20288;-88
2020/12/10 03:03:15;;;;;;;58.03;41.27;;;;;;;;;;4993187;28;20178;-88
2020/12/10 03:05:46;;;;;;;64.53;42.80;;;;;;;;;;4994634;28;20159;-88
2020/12/10 03:08:16;;;;;;;63.80;44.00;;;;;;;;;;4994470;28;20198;-88
2020/12/10 03:10:50;;;;;;;64.70;41.67;;;;;;;;;;4992842;28;20748;-88
2020/12/10 03:13:21;;;;;;;59.93;43.67;;;;;;;;;;4994336;28;20170;-88
2020/12/10 03:15:47;;;;;;;64.33;43.07;;;;;;;;;;4993346;28;20643;-88
2020/12/10 03:18:19;;;;;;;64.63;43.73;;;;;;;;;;4992941;28;20179;-88
2020/12/10 03:20:50;;;;;;;64.93;43.13;;;;;;;;;;4994014;28;20293;-88
2020/12/10 03:23:23;;;;;;;65.47;44.33;;;;;;;;;;4992689;28;20182;-88
2020/12/10 03:25:54;;;;;;;67.03;42.70;;;;;;;;;;4993169;28;20264;-88
2020/12/10 03:28:29;;;;;;;64.00;44.50;;;;;;;;;;4993792;28;20638;-88
2020/12/10 03:31:01;;;;;;;66.43;43.63;;;;;;;;;;4992474;28;20249;-88
2020/12/10 03:33:35;;;;;;;69.43;45.50;;;;;;;;;;4992639;28;20248;-88
2020/12/10 03:36:01;;;;;;;69.93;45.80;;;;;;;;;;4993361;28;20182;-88
2020/12/10 03:38:35;;;;;;;75.47;46.20;;;;;;;;;;4993870;28;20662;-88
2020/12/10 03:41:11;;;;;;;74.87;43.97;;;;;;;;;;4993688;28;20202;-88
2020/12/10 03:43:42;;;;;;;77.13;46.60;;;;;;;;;;4992948;28;20178;-88
2020/12/10 03:46:12;;;;;;;71.20;46.77;;;;;;;;;;4993593;28;20622;-88
2020/12/10 03:48:42;;;;;;;77.47;44.40;;;;;;;;;;4992684;28;20189;-88
2020/12/10 03:51:12;;;;;;;77.33;46.47;;;;;;;;;;4992243;28;20202;-88
2020/12/10 03:53:38;;;;;;;85.33;48.80;;;;;;;;;;4992464;28;20216;-88
2020/12/10 03:56:08;;;;;;;83.27;48.10;;;;;;;;;;4992538;28;20185;-88
2020/12/10 03:58:35;;;;;;;84.80;47.17;;;;;;;;;;4993773;28;20177;-88
2020/12/10 04:01:08;;;;;;;84.80;49.03;;;;;;;;;;4992759;28;20725;-88
2020/12/10 04:03:39;;;;;;;94.57;50.70;;;;;;;;;;4992359;28;20252;-88
2020/12/10 04:06:12;;;;;;;96.37;52.00;;;;;;;;;;4992244;28;20427;-88
2020/12/10 04:08:45;;;;;;;105.10;51.93;;;;;;;;;;4993542;28;20266;-88
2020/12/10 04:11:16;;;;;;;102.57;52.73;;;;;;;;;;4993397;28;20291;-88
2020/12/10 04:13:46;;;;;;;99.13;51.13;;;;;;;;;;4992228;28;20240;-88
2020/12/10 04:16:18;;;;;;;97.80;52.40;;;;;;;;;;4993503;28;20698;-88
2020/12/10 04:18:53;;;;;;;107.07;55.17;;;;;;;;;;4992228;28;20634;-88
2020/12/10 04:21:25;;;;;;;112.53;54.17;;;;;;;;;;4992225;28;20252;-88
2020/12/10 04:23:58;;;;;;;102.97;51.63;;;;;;;;;;4992478;28;20182;-88
2020/12/10 04:26:30;;;;;;;102.20;54.50;;;;;;;;;;4992182;28;20186;-88
2020/12/10 04:28:57;;;;;;;104.23;51.23;;;;;;;;;;4992382;28;20190;-88
2020/12/10 04:31:29;;;;;;;102.43;51.97;;;;;;;;;;4991846;28;20224;-88
2020/12/10 04:33:57;;;;;;;103.27;52.40;;;;;;;;;;4992075;28;20248;-88
2020/12/10 04:36:29;;;;;;;98.90;53.50;;;;;;;;;;4992179;28;20219;-88
2020/12/10 04:38:58;;;;;;;102.93;51.63;;;;;;;;;;4993457;28;20178;-88
2020/12/10 04:41:31;;;;;;;90.27;48.17;;;;;;;;;;4997312;28;20204;-88
2020/12/10 04:43:58;;;;;;;94.40;46.77;;;;;;;;;;4995707;28;20181;-88
2020/12/10 04:46:27;;;;;;;89.07;46.17;;;;;;;;;;4996807;28;20189;-88
2020/12/10 04:48:56;;;;;;;93.63;47.13;;;;;;;;;;4996789;28;20717;-88
2020/12/10 04:51:27;;;;;;;83.23;46.53;;;;;;;;;;4995760;28;20210;-88
2020/12/10 04:54:00;;;;;;;88.00;46.23;;;;;;;;;;4996765;28;20174;-88
2020/12/10 04:56:36;;;;;;;88.53;45.23;;;;;;;;;;4996893;28;20424;-88
2020/12/10 04:59:08;;;;;;;81.87;43.23;;;;;;;;;;4995812;28;20174;-88
2020/12/10 05:01:40;;;;;;;78.67;42.90;;;;;;;;;;4996808;28;20203;-88
2020/12/10 05:04:10;;;;;;;82.17;45.13;;;;;;;;;;4996504;28;20193;-88
2020/12/10 05:06:51;;;;;;;77.90;44.33;;;;;;;;;;4995243;28;20192;-88
2020/12/10 05:09:22;;;;;;;80.27;43.67;;;;;;;;;;4995993;28;20645;-88
2020/12/10 05:11:54;;;;;;;78.80;46.50;;;;;;;;;;4995031;28;20209;-88
2020/12/10 05:14:26;;;;;;;80.67;44.93;;;;;;;;;;4995319;28;20182;-88
2020/12/10 05:17:12;;;;;;;74.70;45.57;;;;;;;;;;4995162;28;20634;-88
2020/12/10 05:19:38;;;;;;;85.60;46.50;;;;;;;;;;4995021;28;20209;-88
2020/12/10 05:22:10;;;;;;;82.90;45.47;;;;;;;;;;4996196;28;20185;-88
2020/12/10 05:24:41;;;;;;;72.03;44.73;;;;;;;;;;4995003;28;20273;-88
2020/12/10 05:27:20;;;;;;;70.73;46.10;;;;;;;;;;4995223;28;20601;-88
2020/12/10 05:29:51;;;;;;;79.10;46.40;;;;;;;;;;4996365;28;20292;-88
2020/12/10 05:32:38;;;;;;;75.37;43.30;;;;;;;;;;4994798;28;20217;-88
2020/12/10 05:35:13;;;;;;;79.80;46.73;;;;;;;;;;4994855;28;20344;-88
2020/12/10 05:37:44;;;;;;;78.57;46.27;;;;;;;;;;4994693;28;20181;-88
2020/12/10 05:40:15;;;;;;;75.10;44.47;;;;;;;;;;4994581;28;20201;-88
2020/12/10 05:42:48;;;;;;;76.57;46.03;;;;;;;;;;4995881;28;20196;-88
2020/12/10 05:45:21;;;;;;;85.63;45.53;;;;;;;;;;4994953;28;20702;-88
2020/12/10 05:47:51;;;;;;;75.00;44.97;;;;;;;;;;4994642;28;20185;-88
2020/12/10 05:50:24;;;;;;;79.93;46.93;;;;;;;;;;4994768;28;20675;-88
2020/12/10 05:53:07;;;;;;;74.73;45.80;;;;;;;;;;4995687;28;20201;-88
2020/12/10 05:55:41;;;;;;;71.07;44.13;;;;;;;;;;4994421;28;20181;-88
2020/12/10 05:58:12;;;;;;;71.47;40.27;;;;;;;;;;4994339;28;20268;-88
2020/12/10 06:00:41;;;;;;;69.23;44.13;;;;;;;;;;4994519;28;20568;-88
2020/12/10 06:03:11;;;;;;;72.80;44.17;;;;;;;;;;4995517;28;20194;-88
2020/12/10 06:05:41;;;;;;;74.73;42.23;;;;;;;;;;4994338;28;20186;-88
2020/12/10 06:08:11;;;;;;;68.37;42.37;;;;;;;;;;4994188;28;20193;-88
2020/12/10 06:10:42;;;;;;;62.77;41.20;;;;;;;;;;4993972;28;20203;-88
2020/12/10 06:13:15;;;;;;;69.90;42.97;;;;;;;;;;4994004;28;20295;-88
2020/12/10 06:15:50;;;;;;;68.80;42.83;;;;;;;;;;4995463;28;20174;-88
2020/12/10 06:18:17;;;;;;;69.57;42.57;;;;;;;;;;4994880;28;20547;-88
2020/12/10 06:20:45;;;;;;;68.53;43.27;;;;;;;;;;4993896;28;20622;-88
2020/12/10 06:23:32;;;;;;;64.70;39.43;;;;;;;;;;4993904;28;20270;-88
2020/12/10 06:26:22;;;;;;;62.20;40.00;;;;;;;;;;4995101;28;20201;-88
2020/12/10 06:28:55;;;;;;;66.47;41.53;;;;;;;;;;4993650;28;20192;-88
2020/12/10 06:31:25;;;;;;;66.33;38.87;;;;;;;;;;4994014;28;20301;-88
2020/12/10 06:33:58;;;;;;;68.07;42.17;;;;;;;;;;4993719;28;20183;-88
2020/12/10 06:36:30;;;;;;;63.90;40.67;;;;;;;;;;4995203;28;20170;-88
2020/12/10 06:39:05;;;;;;;66.10;40.43;;;;;;;;;;4993676;28;20184;-88
2020/12/10 06:41:31;;;;;;;64.27;41.30;;;;;;;;;;4993518;28;20548;-88
2020/12/10 06:44:01;;;;;;;61.00;39.37;;;;;;;;;;4993503;28;20181;-88
2020/12/10 06:46:51;;;;;;;62.70;39.70;;;;;;;;;;4993478;28;20184;-88
2020/12/10 06:49:30;;;;;;;60.50;38.53;;;;;;;;;;4993374;28;20221;-88
2020/12/10 06:52:17;;;;;;;57.23;37.13;;;;;;;;;;4993442;28;20217;-88
2020/12/10 06:55:02;;;;;;;58.10;40.23;;;;;;;;;;4994873;28;20164;-88
2020/12/10 06:57:49;;;;;;;58.17;38.13;;;;;;;;;;4993273;28;20178;-88
2020/12/10 07:00:34;;;;;;;56.67;38.57;;;;;;;;;;4994422;28;20287;-88
2020/12/10 07:03:13;;;;;;;55.87;36.13;;;;;;;;;;4993973;28;20313;-89
2020/12/10 07:05:42;;;;;;;45.97;34.47;;;;;;;;;;4993217;28;20611;-88
2020/12/10 07:08:17;;;;;;;60.43;37.57;;;;;;;;;;4994373;28;20188;-88
2020/12/10 07:10:49;;;;;;;55.23;37.67;;;;;;;;;;4994382;28;20196;-88
2020/12/10 07:13:18;;;;;;;51.53;36.93;;;;;;;;;;4994370;28;20197;-88
2020/12/10 07:15:48;;;;;;;52.03;37.43;;;;;;;;;;4994203;28;20182;-88
2020/12/10 07:18:23;;;;;;;60.83;38.10;;;;;;;;;;4994154;28;20199;-88
2020/12/10 07:20:55;;;;;;;55.37;36.97;;;;;;;;;;4993237;28;20200;-88
2020/12/10 07:23:28;;;;;;;61.30;39.20;;;;;;;;;;4994341;28;20176;-88
2020/12/10 07:26:00;;;;;;;55.70;38.03;;;;;;;;;;4993340;28;20178;-88
2020/12/10 07:28:31;;;;;;;55.53;36.87;;;;;;;;;;4992720;28;20691;-88
2020/12/10 07:31:05;;;;;;;56.97;37.60;;;;;;;;;;4993950;28;20217;-88
2020/12/10 07:33:39;;;;;;;56.43;37.47;;;;;;;;;;4993985;28;20266;-88
2020/12/10 07:36:11;;;;;;;55.93;36.87;;;;;;;;;;4994211;28;20166;-88
2020/12/10 07:38:48;;;;;;;55.43;37.57;;;;;;;;;;4992529;28;20182;-88
2020/12/10 07:41:20;;;;;;;57.90;36.80;;;;;;;;;;4993302;28;20242;-89
2020/12/10 07:43:59;;;;;;;52.47;36.00;;;;;;;;;;4992662;28;20171;-88
2020/12/10 07:46:37;;;;;;;52.80;35.47;;;;;;;;;;4993836;28;20178;-88
2020/12/10 07:49:08;;;;;;;51.70;37.20;;;;;;;;;;4992533;28;20177;-88
2020/12/10 07:51:40;;;;;;;56.67;36.63;;;;;;;;;;4992426;28;20213;-88
2020/12/10 07:54:11;;;;;;;53.83;37.77;;;;;;;;;;4993746;28;20250;-88
2020/12/10 07:56:46;;;;;;;52.17;36.73;;;;;;;;;;4994001;28;20550;-88
2020/12/10 07:59:21;;;;;;;52.60;36.00;;;;;;;;;;4993795;28;20205;-88
2020/12/10 08:02:00;;;;;;;55.87;35.67;;;;;;;;;;4992452;28;20707;-88
2020/12/10 08:04:36;;;;;;;52.57;36.93;;;;;;;;;;4993157;28;20240;-88
2020/12/10 08:07:12;;;;;;;56.47;37.43;;;;;;;;;;4992332;28;20184;-88
2020/12/10 08:09:45;;;;;;;53.77;36.73;;;;;;;;;;4992560;28;20200;-88
2020/12/10 08:12:17;;;;;;;59.53;38.30;;;;;;;;;;4993674;28;20232;-88
2020/12/10 08:14:52;;;;;;;60.03;38.00;;;;;;;;;;4994202;28;20529;-88
2020/12/10 08:17:24;;;;;;;60.90;39.33;;;;;;;;;;4997450;28;20649;-88
2020/12/10 08:19:58;;;;;;;68.03;40.17;;;;;;;;;;4997162;28;20717;-88
2020/12/10 08:22:30;;;;;;;63.27;37.70;;;;;;;;;;4996138;28;20184;-88
2020/12/10 08:25:00;;;;;;;70.37;39.20;;;;;;;;;;4996180;28;20540;-88
2020/12/10 08:27:37;;;;;;;59.57;36.20;;;;;;;;;;4996131;28;20188;-88
2020/12/10 08:30:10;;;;;;;62.23;37.17;;;;;;;;;;4996129;28;20270;-88
2020/12/10 08:32:57;;;;;;;61.97;38.03;;;;;;;;;;4996512;28;20233;-88
2020/12/10 08:35:30;;;;;;;61.43;36.50;;;;;;;;;;4997671;28;20197;-88
2020/12/10 08:37:59;;;;;;;59.60;36.47;;;;;;;;;;4996191;28;20272;-90
2020/12/10 08:40:31;;;;;;;53.00;35.33;;;;;;;;;;4997160;28;20272;-85
2020/12/10 08:43:08;;;;;;;64.57;37.00;;;;;;;;;;4995674;28;20607;-86
2020/12/10 08:45:43;;;;;;;68.57;37.57;;;;;;;;;;4995649;28;20186;-87
2020/12/10 08:48:16;;;;;;;59.30;37.10;;;;;;;;;;4997198;28;20637;-87
2020/12/10 08:50:54;;;;;;;66.97;35.27;;;;;;;;;;4996765;28;20666;-87
2020/12/10 08:53:29;;;;;;;67.07;36.07;;;;;;;;;;4995429;28;20210;-87
2020/12/10 08:55:57;;;;;;;61.47;36.57;;;;;;;;;;4995439;28;20185;-87
2020/12/10 08:58:29;;;;;;;60.27;36.23;;;;;;;;;;4996607;28;20173;-87
2020/12/10 09:00:57;;;;;;;69.07;36.70;;;;;;;;;;4995415;28;20201;-87
2020/12/10 09:03:27;;;;;;;67.60;39.07;;;;;;;;;;4995230;28;20192;-87
2020/12/10 09:05:56;;;;;;;65.37;36.87;;;;;;;;;;4995431;28;20197;-86
2020/12/10 09:08:28;;;;;;;72.23;38.57;;;;;;;;;;4995222;28;20666;-87
2020/12/10 09:10:56;;;;;;;69.27;37.03;;;;;;;;;;4995092;28;20672;-86
2020/12/10 09:13:24;;;;;;;73.93;34.73;;;;;;;;;;4996220;28;20581;-86
2020/12/10 09:15:50;;;;;;;63.67;35.43;;;;;;;;;;4995099;28;20182;-86
2020/12/10 09:18:19;;;;;;;60.27;34.00;;;;;;;;;;4995034;28;20227;-86
2020/12/10 09:20:47;;;;;;;68.80;35.27;;;;;;;;;;4994931;28;20225;-87
2020/12/10 09:23:13;;;;;;;58.07;32.27;;;;;;;;;;4996166;28;20191;-87
2020/12/10 09:25:42;;;;;;;58.33;34.20;;;;;;;;;;4995711;28;20628;-86
2020/12/10 09:28:11;;;;;;;55.50;33.93;;;;;;;;;;4996067;28;20182;-86
2020/12/10 09:30:40;;;;;;;61.70;34.57;;;;;;;;;;4994614;28;20217;-87
2020/12/10 09:33:11;;;;;;;58.47;35.40;;;;;;;;;;4994663;28;20209;-87
2020/12/10 09:35:48;;;;;;;60.87;35.53;;;;;;;;;;4994963;28;20287;-87
2020/12/10 09:38:20;;;;;;;65.93;34.97;;;;;;;;;;4994716;28;20173;-87
2020/12/10 09:40:56;;;;;;;64.67;36.47;;;;;;;;;;4994569;28;20383;-87
2020/12/10 09:43:28;;;;;;;62.43;36.70;;;;;;;;;;4994631;28;20191;-88
2020/12/10 09:46:03;;;;;;;61.37;35.77;;;;;;;;;;4994575;28;20281;-87
2020/12/10 09:48:29;;;;;;;71.83;37.57;;;;;;;;;;4994459;28;20560;-87
2020/12/10 09:50:59;;;;;;;65.50;37.17;;;;;;;;;;4994320;28;20209;-87
2020/12/10 09:53:44;;;;;;;61.77;36.53;;;;;;;;;;4994371;28;20578;-87
2020/12/10 09:56:37;;;;;;;58.17;35.57;;;;;;;;;;4994514;28;20623;-88
2020/12/10 09:59:05;;;;;;;58.90;36.97;;;;;;;;;;4994311;28;20640;-88
2020/12/10 10:01:40;;;;;;;60.80;37.83;;;;;;;;;;4995723;28;20197;-88
2020/12/10 10:04:11;;;;;;;63.27;36.73;;;;;;;;;;4994269;28;20177;-87
2020/12/10 10:06:48;;;;;;;60.63;36.70;;;;;;;;;;4994673;28;20201;-87
2020/12/10 10:09:16;;;;;;;67.03;37.33;;;;;;;;;;4994957;28;20553;-86
2020/12/10 10:11:47;;;;;;;69.67;40.00;;;;;;;;;;4995702;28;20204;-85
2020/12/10 10:14:13;;;;;;;66.30;42.47;;;;;;;;;;4994052;28;20185;-85
2020/12/10 10:16:48;;;;;;;62.43;39.90;;;;;;;;;;4994133;28;20656;-87
2020/12/10 10:19:20;;;;;;;73.30;42.53;;;;;;;;;;4994225;28;20182;-87
2020/12/10 10:21:51;;;;;;;68.20;40.80;;;;;;;;;;4993900;28;20190;-87
2020/12/10 10:24:25;;;;;;;71.87;42.03;;;;;;;;;;4995231;28;20254;-87
2020/12/10 10:26:58;;;;;;;68.50;42.07;;;;;;;;;;4993802;28;20184;-88
2020/12/10 10:29:30;;;;;;;68.03;41.67;;;;;;;;;;4993557;28;20646;-88
2020/12/10 10:32:06;;;;;;;63.80;38.97;;;;;;;;;;4993815;28;20681;-87
2020/12/10 10:34:38;;;;;;;67.67;41.37;;;;;;;;;;4993789;28;20173;-87
2020/12/10 10:37:10;;;;;;;79.90;41.43;;;;;;;;;;4994532;28;20291;-87
2020/12/10 10:39:42;;;;;;;71.50;41.20;;;;;;;;;;4994175;28;20205;-87
2020/12/10 10:42:15;;;;;;;79.77;43.20;;;;;;;;;;4993561;28;20189;-87
2020/12/10 10:44:48;;;;;;;79.27;43.37;;;;;;;;;;4993506;28;20182;-87
2020/12/10 10:47:14;;;;;;;90.03;44.33;;;;;;;;;;4994804;28;20654;-87
2020/12/10 10:49:40;;;;;;;90.60;47.27;;;;;;;;;;4994586;28;20201;-87
2020/12/10 10:52:06;;;;;;;94.67;47.60;;;;;;;;;;4993265;28;20217;-87
2020/12/10 10:54:36;;;;;;;84.30;46.13;;;;;;;;;;4993262;28;20177;-87
2020/12/10 10:57:08;;;;;;;85.17;47.47;;;;;;;;;;4994506;28;20550;-87
2020/12/10 10:59:40;;;;;;;91.60;48.90;;;;;;;;;;4993095;28;20185;-87
2020/12/10 11:02:13;;;;;;;82.67;47.47;;;;;;;;;;4993098;28;20180;-87
2020/12/10 11:04:40;;;;;;;96.77;47.73;;;;;;;;;;4994375;28;20188;-88
2020/12/10 11:07:11;;;;;;;92.97;47.37;;;;;;;;;;4993385;28;20197;-87
2020/12/10 11:09:40;;;;;;;88.23;47.27;;;;;;;;;;4993037;28;20207;-87
2020/12/10 11:12:13;;;;;;;81.07;43.37;;;;;;;;;;4994209;28;20715;-88
2020/12/10 11:14:41;;;;;;;79.83;46.17;;;;;;;;;;4992978;28;20186;-87
2020/12/10 11:17:12;;;;;;;86.40;47.10;;;;;;;;;;4992958;28;20174;-87
2020/12/10 11:19:43;;;;;;;85.70;47.67;;;;;;;;;;4993106;28;20201;-87
2020/12/10 11:22:17;;;;;;;80.03;46.27;;;;;;;;;;4992733;28;20189;-87
2020/12/10 11:24:50;;;;;;;76.07;47.47;;;;;;;;;;4993058;28;20604;-88
2020/12/10 11:27:21;;;;;;;79.50;47.80;;;;;;;;;;4992890;28;20281;-88
2020/12/10 11:29:54;;;;;;;77.07;46.07;;;;;;;;;;4992878;28;20214;-88
2020/12/10 11:32:30;;;;;;;74.47;45.17;;;;;;;;;;5085595;23;20229;-81
2020/12/10 11:35:01;;;;;;;76.60;44.97;;;;;;;;;;4995737;28;20244;-82
2020/12/10 11:37:32;;;;;;;75.67;47.53;;;;;;;;;;4994937;28;20174;-80
2020/12/10 11:40:04;;;;;;;76.40;46.37;;;;;;;;;;4994876;28;20592;-82
2020/12/10 11:42:36;;;;;;;70.53;45.80;;;;;;;;;;4995138;28;20287;-82
2020/12/10 11:45:08;;;;;;;77.40;46.07;;;;;;;;;;4995171;28;20257;-82
2020/12/10 11:47:40;;;;;;;72.43;44.60;;;;;;;;;;4993482;28;20246;-82
2020/12/10 11:50:21;;;;;;;73.20;46.43;;;;;;;;;;4993550;28;20178;-82
2020/12/10 11:52:54;;;;;;;73.87;46.57;;;;;;;;;;4994714;28;20213;-81
2020/12/10 11:55:26;;;;;;;79.10;46.80;;;;;;;;;;4994754;28;20177;-82
2020/12/10 11:57:57;;;;;;;77.97;48.20;;;;;;;;;;4994833;28;20552;-82
2020/12/10 12:00:31;;;;;;;78.03;49.03;;;;;;;;;;4995134;28;20208;-82
2020/12/10 12:03:02;;;;;;;83.73;46.70;;;;;;;;;;4993898;28;20212;-82
2020/12/10 12:05:36;;;;;;;74.47;47.10;;;;;;;;;;4993571;28;20215;-82
2020/12/10 12:08:08;;;;;;;72.50;45.70;;;;;;;;;;4994341;28;20632;-82
2020/12/10 12:10:38;;;;;;;72.07;45.40;;;;;;;;;;4997626;28;20158;-82
2020/12/10 12:13:12;;;;;;;92.10;48.87;;;;;;;;;;4994595;28;20225;-82
2020/12/10 12:15:45;;;;;;;75.60;46.23;;;;;;;;;;4993801;28;20580;-82
2020/12/10 12:18:13;;;;;;;80.37;47.97;;;;;;;;;;4994948;28;20178;-82
2020/12/10 12:20:42;;;;;;;82.50;48.57;;;;;;;;;;4994575;28;20316;-82
2020/12/10 12:23:15;;;;;;;80.10;47.77;;;;;;;;;;4993777;28;20182;-82
2020/12/10 12:25:44;;;;;;;78.40;47.57;;;;;;;;;;4993401;28;20546;-81
2020/12/10 12:28:16;;;;;;;78.80;47.90;;;;;;;;;;4995841;28;20180;-82
2020/12/10 12:30:46;;;;;;;84.33;48.93;;;;;;;;;;4994073;28;20185;-82
2020/12/10 12:33:16;;;;;;;93.30;51.70;;;;;;;;;;4993799;28;20209;-84
2020/12/10 12:35:46;;;;;;;77.13;47.70;;;;;;;;;;4994431;28;20178;-82
2020/12/10 12:38:14;;;;;;;87.07;49.57;;;;;;;;;;4995534;28;20180;-82
2020/12/10 12:40:50;;;;;;;79.63;48.47;;;;;;;;;;4993657;28;20181;-81
2020/12/10 12:43:26;;;;;;;79.37;45.77;;;;;;;;;;4994127;28;20236;-82
2020/12/10 12:45:57;;;;;;;82.00;48.20;;;;;;;;;;4995883;28;20237;-82
2020/12/10 12:48:30;;;;;;;75.30;49.03;;;;;;;;;;4994979;28;20655;-82
2020/12/10 12:51:06;;;;;;;71.77;44.17;;;;;;;;;;4994858;28;20713;-82
2020/12/10 12:53:32;;;;;;;86.23;47.57;;;;;;;;;;4994712;28;20213;-82
2020/12/10 12:56:06;;;;;;;73.27;46.83;;;;;;;;;;4996255;28;20170;-82
2020/12/10 12:58:38;;;;;;;77.30;47.23;;;;;;;;;;4996033;28;20169;-82
2020/12/10 13:01:10;;;;;;;73.60;47.37;;;;;;;;;;4996021;28;20190;-82
2020/12/10 13:03:38;;;;;;;79.77;48.97;;;;;;;;;;5000564;28;20260;-81
2020/12/10 13:06:16;;;;;;;84.97;51.80;;;;;;;;;;5001794;28;20258;-82
2020/12/10 13:08:48;;;;;;;86.63;50.50;;;;;;;;;;4998125;28;20681;-82
2020/12/10 13:11:21;;;;;;;94.77;55.20;;;;;;;;;;4999167;28;20617;-81
2020/12/10 13:13:49;;;;;;;80.03;49.50;;;;;;;;;;5000000;28;20197;-81
2020/12/10 13:16:23;;;;;;;83.80;51.43;;;;;;;;;;4998217;28;20649;-82
2020/12/10 13:18:55;;;;;;;90.33;53.87;;;;;;;;;;4998799;28;20147;-82
2020/12/10 13:21:27;;;;;;;86.27;52.37;;;;;;;;;;4998174;28;20237;-81
2020/12/10 13:24:00;;;;;;;83.60;51.20;;;;;;;;;;4997972;28;20174;-81
2020/12/10 13:26:35;;;;;;;84.63;49.07;;;;;;;;;;4997746;28;20166;-83
2020/12/10 13:29:03;;;;;;;83.43;49.83;;;;;;;;;;4995949;28;20177;-80
2020/12/10 13:31:31;;;;;;;89.13;51.47;;;;;;;;;;4997723;28;20565;-82
2020/12/10 13:34:02;;;;;;;82.30;51.07;;;;;;;;;;4997001;28;20240;-81
2020/12/10 13:36:34;;;;;;;87.97;50.10;;;;;;;;;;4997854;28;20654;-81
2020/12/10 13:39:05;;;;;;;83.33;52.80;;;;;;;;;;4998349;28;20541;-80
2020/12/10 13:41:34;;;;;;;92.57;53.73;;;;;;;;;;5001379;28;20197;-80
2020/12/10 13:44:07;;;;;;;94.53;55.10;;;;;;;;;;5001564;28;20672;-81
2020/12/10 13:46:42;;;;;;;91.13;53.73;;;;;;;;;;5003002;28;20579;-79
2020/12/10 13:49:08;;;;;;;105.33;55.10;;;;;;;;;;4998904;28;20176;-82
2020/12/10 13:51:34;;;;;;;94.33;55.93;;;;;;;;;;4997704;28;20206;-81
2020/12/10 13:54:07;;;;;;;90.93;53.03;;;;;;;;;;4996451;28;20269;-81
2020/12/10 13:56:33;;;;;;;106.90;55.87;;;;;;;;;;4999415;28;20193;-81
2020/12/10 13:59:04;;;;;;;91.60;51.97;;;;;;;;;;4996420;28;20166;-81
2020/12/10 14:01:39;;;;;;;98.57;54.37;;;;;;;;;;4997511;28;20194;-81
2020/12/10 14:04:11;;;;;;;94.17;50.53;;;;;;;;;;4997405;28;20181;-81
2020/12/10 14:06:40;;;;;;;96.10;52.30;;;;;;;;;;4997801;28;20174;-81
2020/12/10 14:09:11;;;;;;;95.17;52.57;;;;;;;;;;4996131;28;20264;-82
2020/12/10 14:11:42;;;;;;;100.97;53.67;;;;;;;;;;4994815;28;20237;-81
2020/12/10 14:14:12;;;;;;;96.53;52.47;;;;;;;;;;4996962;28;20170;-83
2020/12/10 14:16:42;;;;;;;91.67;52.10;;;;;;;;;;4996465;28;20547;-81
2020/12/10 14:19:12;;;;;;;95.70;51.47;;;;;;;;;;4996127;28;20178;-82
2020/12/10 14:21:38;;;;;;;92.97;52.70;;;;;;;;;;4995974;28;20201;-82
2020/12/10 14:24:05;;;;;;;99.33;52.27;;;;;;;;;;4994402;28;20176;-82
2020/12/10 14:26:31;;;;;;;85.63;51.33;;;;;;;;;;4995622;28;20260;-81
2020/12/10 14:29:01;;;;;;;96.57;51.23;;;;;;;;;;4994485;28;20276;-81
2020/12/10 14:31:32;;;;;;;96.60;51.33;;;;;;;;;;4995719;28;20218;-82
2020/12/10 14:34:05;;;;;;;91.93;51.27;;;;;;;;;;4995535;28;20256;-82
2020/12/10 14:36:35;;;;;;;90.70;49.77;;;;;;;;;;4994437;28;20182;-82
2020/12/10 14:39:08;;;;;;;98.20;52.93;;;;;;;;;;4995606;28;20541;-82
2020/12/10 14:41:40;;;;;;;106.13;54.97;;;;;;;;;;4994496;28;20202;-81
2020/12/10 14:44:12;;;;;;;114.13;56.10;;;;;;;;;;4995583;28;20174;-82